Time;durP1;ratioP1;P1;durP2;ratioP2;P2;SDS_P1;SDS_P2;PMS_P1;PMS_P2;Temp;Humidity;BMP_temperature;BMP_pressure;BME280_temperature;BME280_humidity;BME280_pressure;Samples;Min_cycle;Max_cycle;Signal;HPM_P1;HPM_P2
2022/08/15 00:01:06;;;;;;;;;;;;;;;24.24;70.87;99399.31;5035804;28;1303;-86
2022/08/15 00:03:39;;;;;;;;;;;;;;;24.08;71.60;99392.06;5058241;28;1200;-87
2022/08/15 00:06:07;;;;;;;;;;;;;;;24.01;71.29;99380.09;5053310;28;1948;-86
2022/08/15 00:08:36;;;;;;;;;;;;;;;23.99;71.83;99377.69;5032108;28;1271;-86
2022/08/15 00:11:05;;;;;;;;;;;;;;;24.00;71.75;99376.50;5031550;28;1684;-86
2022/08/15 00:13:31;;;;;;;;;;;;;;;23.88;72.78;99373.28;5035057;28;1441;-86
2022/08/15 00:15:56;;;;;;;;;;;;;;;23.80;74.02;99378.06;5034416;28;1647;-86
2022/08/15 00:18:24;;;;;;;;;;;;;;;23.57;76.77;99377.59;5048872;28;1206;-86
2022/08/15 00:20:49;;;;;;;;;;;;;;;23.54;75.96;99372.81;5051751;28;1370;-86
2022/08/15 00:23:17;;;;;;;;;;;;;;;23.65;74.96;99377.22;5035217;28;1360;-86
2022/08/15 00:25:44;;;;;;;;;;;;;;;23.80;73.60;99377.28;5033776;28;1903;-85
2022/08/15 00:28:09;;;;;;;;;;;;;;;23.53;75.67;99377.59;5034254;28;1425;-86
2022/08/15 00:30:35;;;;;;;;;;;;;;;23.48;76.14;99372.34;5034926;28;1687;-86
2022/08/15 00:33:01;;;;;;;;;;;;;;;23.35;76.27;99373.94;5052787;28;1410;-86
2022/08/15 00:35:41;;;;;;;;;;;;;;;23.43;74.69;99371.94;5034887;28;1348;-86
2022/08/15 00:38:08;;;;;;;;;;;;;;;23.50;75.34;99370.00;5035579;28;1355;-86
2022/08/15 00:41:39;;;;;;;;;;;;;;;23.53;73.85;99365.63;5035001;28;1429;-86
2022/08/15 00:43:19;;;;;;;;;;;;;;;23.58;74.54;99363.25;5054070;28;1738;-86
2022/08/15 00:45:44;;;;;;;;;;;;;;;23.46;74.39;99366.38;5048072;28;1937;-87
2022/08/15 00:50:53;;;;;;;;;;;;;;;23.56;73.16;99367.66;5037849;28;1188;-86
2022/08/15 00:53:19;;;;;;;;;;;;;;;23.55;74.21;99366.84;5064547;28;1249;-86
2022/08/15 00:55:45;;;;;;;;;;;;;;;23.46;74.29;99365.59;5044240;28;1654;-86
2022/08/15 00:58:10;;;;;;;;;;;;;;;23.27;74.96;99363.91;5063140;28;1390;-86
2022/08/15 01:00:42;;;;;;;;;;;;;;;23.22;74.52;99365.09;5044229;28;1390;-86
2022/08/15 01:03:11;;;;;;;;;;;;;;;23.16;75.52;99361.09;5035454;28;1191;-86
2022/08/15 01:05:36;;;;;;;;;;;;;;;23.28;75.27;99357.94;5034708;28;1894;-87
2022/08/15 01:08:01;;;;;;;;;;;;;;;23.16;74.32;99354.69;5035456;28;1528;-86
2022/08/15 01:10:26;;;;;;;;;;;;;;;23.13;75.71;99344.34;5034882;28;1194;-86
2022/08/15 01:12:52;;;;;;;;;;;;;;;22.88;76.68;99335.84;5031912;28;1351;-86
2022/08/15 01:15:18;;;;;;;;;;;;;;;22.84;75.45;99333.03;5053006;28;1389;-86
2022/08/15 01:17:44;;;;;;;;;;;;;;;23.09;73.51;99340.72;5051434;28;1436;-86
2022/08/15 01:20:26;;;;;;;;;;;;;;;23.06;75.72;99341.50;5034704;28;1325;-86
2022/08/15 01:23:01;;;;;;;;;;;;;;;23.03;75.66;99337.50;5052668;28;1346;-86
2022/08/15 01:25:29;;;;;;;;;;;;;;;23.12;76.65;99346.31;5032105;28;1927;-87
2022/08/15 01:27:57;;;;;;;;;;;;;;;23.18;75.57;99343.94;5031588;28;1309;-86
2022/08/15 01:30:26;;;;;;;;;;;;;;;23.15;76.03;99344.72;5049443;28;1308;-87
2022/08/15 01:32:52;;;;;;;;;;;;;;;23.06;75.08;99335.91;5034840;28;1196;-87
2022/08/15 01:35:17;;;;;;;;;;;;;;;22.83;77.13;99339.00;5032442;28;1414;-86
2022/08/15 01:37:42;;;;;;;;;;;;;;;23.03;76.28;99340.31;5034266;28;1359;-86
2022/08/15 01:40:17;;;;;;;;;;;;;;;23.15;74.68;99339.13;5035391;28;1367;-86
2022/08/15 01:42:44;;;;;;;;;;;;;;;23.10;75.98;99342.31;5051907;28;1279;-86
2022/08/15 01:45:18;;;;;;;;;;;;;;;23.01;75.97;99337.91;5051382;28;1973;-86
2022/08/15 01:47:58;;;;;;;;;;;;;;;22.99;76.21;99322.72;5047621;28;1434;-86
2022/08/15 01:50:23;;;;;;;;;;;;;;;22.95;75.66;99333.91;5047958;28;1746;-87
2022/08/15 01:52:55;;;;;;;;;;;;;;;22.87;76.50;99329.47;5033609;28;1429;-87
2022/08/15 01:55:23;;;;;;;;;;;;;;;22.88;76.37;99322.66;5035779;28;1341;-86
2022/08/15 01:57:48;;;;;;;;;;;;;;;22.91;76.01;99318.31;5037907;28;1456;-86
2022/08/15 02:00:17;;;;;;;;;;;;;;;22.83;77.13;99325.03;5049097;28;1371;-87
2022/08/15 02:02:42;;;;;;;;;;;;;;;22.85;76.78;99331.03;5037335;28;1228;-86
2022/08/15 02:05:07;;;;;;;;;;;;;;;22.83;76.89;99314.69;5036548;28;1953;-86
2022/08/15 02:07:33;;;;;;;;;;;;;;;22.77;77.49;99321.03;5037709;28;1267;-86
2022/08/15 02:09:58;;;;;;;;;;;;;;;22.65;78.16;99317.34;5053595;28;1205;-86
2022/08/15 02:12:26;;;;;;;;;;;;;;;22.78;77.94;99311.47;5036894;28;1823;-86
2022/08/15 02:14:51;;;;;;;;;;;;;;;22.71;77.98;99309.44;5033920;28;1343;-86
2022/08/15 02:17:16;;;;;;;;;;;;;;;22.68;77.81;99313.00;5044460;23;2019;-86
2022/08/15 02:19:43;;;;;;;;;;;;;;;22.60;79.24;99309.38;5034677;28;1781;-86
2022/08/15 02:22:08;;;;;;;;;;;;;;;22.60;78.15;99303.78;5031790;28;1742;-86
2022/08/15 02:24:34;;;;;;;;;;;;;;;22.41;80.33;99303.25;5030735;28;1902;-86
2022/08/15 02:26:59;;;;;;;;;;;;;;;22.38;78.17;99290.09;5033994;28;1430;-86
2022/08/15 02:29:26;;;;;;;;;;;;;;;22.43;77.44;99296.13;5034352;28;1500;-85
2022/08/15 02:31:52;;;;;;;;;;;;;;;22.29;79.47;99289.66;5026529;28;1626;-85
2022/08/15 02:34:18;;;;;;;;;;;;;;;22.23;79.40;99286.41;5033848;28;1399;-86
2022/08/15 02:36:44;;;;;;;;;;;;;;;22.37;78.04;99280.94;5027453;28;1527;-86
2022/08/15 02:39:09;;;;;;;;;;;;;;;22.41;77.84;99272.59;5036236;28;845;-86
2022/08/15 02:41:36;;;;;;;;;;;;;;;22.49;78.38;99274.22;5029080;28;1334;-86
2022/08/15 02:44:03;;;;;;;;;;;;;;;22.29;78.69;99273.72;5041250;28;1902;-86
2022/08/15 02:46:29;;;;;;;;;;;;;;;22.36;78.56;99272.97;5032547;28;1675;-86
2022/08/15 02:48:54;;;;;;;;;;;;;;;22.47;79.07;99269.03;5034926;28;1502;-86
2022/08/15 02:51:21;;;;;;;;;;;;;;;22.41;78.23;99259.44;5033873;28;1491;-86
2022/08/15 02:53:48;;;;;;;;;;;;;;;22.35;78.43;99263.81;5032093;28;1527;-86
2022/08/15 02:56:14;;;;;;;;;;;;;;;22.24;78.91;99257.34;5033159;28;1813;-86
2022/08/15 02:58:39;;;;;;;;;;;;;;;22.16;79.29;99253.72;5017532;28;1421;-86
2022/08/15 03:01:08;;;;;;;;;;;;;;;22.25;79.76;99258.97;5029993;28;1588;-86
2022/08/15 03:03:34;;;;;;;;;;;;;;;22.36;78.72;99251.47;5033177;28;1450;-86
2022/08/15 03:06:00;;;;;;;;;;;;;;;22.44;78.85;99243.94;5029496;28;1898;-86
2022/08/15 03:08:25;;;;;;;;;;;;;;;22.48;78.33;99256.69;5033777;28;1203;-86
2022/08/15 03:10:50;;;;;;;;;;;;;;;22.35;78.92;99244.28;5033207;28;1480;-86
2022/08/15 03:13:16;;;;;;;;;;;;;;;22.42;78.68;99246.31;5014827;28;1011;-86
2022/08/15 03:15:43;;;;;;;;;;;;;;;22.35;79.56;99247.09;5030384;28;1271;-86
2022/08/15 03:18:08;;;;;;;;;;;;;;;22.23;80.63;99241.81;5030296;28;1317;-87
2022/08/15 03:20:34;;;;;;;;;;;;;;;22.09;80.34;99250.09;5033526;28;1212;-86
2022/08/15 03:22:59;;;;;;;;;;;;;;;22.07;80.36;99236.56;5033120;28;1369;-86
2022/08/15 03:25:25;;;;;;;;;;;;;;;22.15;80.66;99249.34;5033623;28;1948;-85
2022/08/15 03:27:50;;;;;;;;;;;;;;;22.22;80.28;99243.81;5033366;28;1529;-85
2022/08/15 03:30:16;;;;;;;;;;;;;;;22.03;81.95;99243.31;5034420;28;1764;-86
2022/08/15 03:32:42;;;;;;;;;;;;;;;21.87;81.89;99243.53;5033574;28;1230;-85
2022/08/15 03:35:09;;;;;;;;;;;;;;;21.83;82.80;99243.53;5033259;28;1338;-86
2022/08/15 03:37:34;;;;;;;;;;;;;;;21.93;81.57;99235.63;5029189;28;1643;-85
2022/08/15 03:39:59;;;;;;;;;;;;;;;22.08;81.83;99240.94;5032790;28;1445;-85
2022/08/15 03:42:25;;;;;;;;;;;;;;;22.01;82.07;99243.69;5033973;28;1261;-85
2022/08/15 03:44:51;;;;;;;;;;;;;;;21.92;81.39;99236.81;5030945;28;1894;-85
2022/08/15 03:47:16;;;;;;;;;;;;;;;21.88;81.93;99236.78;5033678;28;1419;-85
2022/08/15 03:49:41;;;;;;;;;;;;;;;21.71;82.67;99241.03;5032254;28;1619;-86
2022/08/15 03:52:07;;;;;;;;;;;;;;;21.63;82.66;99238.56;5032629;28;1453;-86
2022/08/15 03:54:32;;;;;;;;;;;;;;;21.81;82.50;99245.09;5032355;28;1691;-86
2022/08/15 03:56:57;;;;;;;;;;;;;;;21.94;82.24;99242.81;5032486;28;1742;-85
2022/08/15 03:59:22;;;;;;;;;;;;;;;21.90;81.38;99248.34;5031593;28;1008;-85
2022/08/15 04:01:49;;;;;;;;;;;;;;;21.60;82.49;99236.56;5032372;28;1406;-85
2022/08/15 04:04:14;;;;;;;;;;;;;;;21.69;82.30;99237.81;5031985;28;1893;-86
2022/08/15 04:06:40;;;;;;;;;;;;;;;21.73;81.99;99235.06;5031088;28;1526;-85
2022/08/15 04:09:06;;;;;;;;;;;;;;;21.84;82.57;99235.97;5030005;28;1495;-84
2022/08/15 04:11:31;;;;;;;;;;;;;;;21.82;81.57;99250.28;5032298;28;1706;-85
2022/08/15 04:13:57;;;;;;;;;;;;;;;21.65;82.15;99248.13;5031253;28;1572;-85
2022/08/15 04:16:23;;;;;;;;;;;;;;;21.69;82.26;99245.41;5031683;28;1350;-85
2022/08/15 04:18:48;;;;;;;;;;;;;;;21.58;82.38;99239.72;5020199;28;1734;-84
2022/08/15 04:21:14;;;;;;;;;;;;;;;21.60;82.64;99236.56;5030077;28;1353;-84
2022/08/15 04:23:41;;;;;;;;;;;;;;;21.53;82.73;99240.88;5031453;28;1817;-85
2022/08/15 04:26:06;;;;;;;;;;;;;;;21.53;82.53;99235.31;5024166;28;1901;-84
2022/08/15 04:28:31;;;;;;;;;;;;;;;21.64;82.40;99234.59;5030345;28;1225;-85
2022/08/15 04:30:58;;;;;;;;;;;;;;;21.72;81.88;99234.28;5022927;28;1868;-84
2022/08/15 04:33:28;;;;;;;;;;;;;;;21.50;83.78;99230.53;5047184;28;1726;-84
2022/08/15 04:35:55;;;;;;;;;;;;;;;21.45;83.94;99232.84;5026592;28;1352;-84
2022/08/15 04:38:20;;;;;;;;;;;;;;;21.51;83.30;99232.13;5036503;28;1164;-83
2022/08/15 04:40:46;;;;;;;;;;;;;;;21.53;83.32;99232.50;5031746;28;1596;-82
2022/08/15 04:43:12;;;;;;;;;;;;;;;21.65;82.88;99247.34;5032866;28;1384;-83
2022/08/15 04:45:38;;;;;;;;;;;;;;;21.61;83.07;99252.88;5032540;28;1901;-84
2022/08/15 04:48:04;;;;;;;;;;;;;;;21.68;83.07;99249.38;5028221;28;1473;-82
2022/08/15 04:50:30;;;;;;;;;;;;;;;21.66;82.37;99243.38;5033638;28;1380;-83
2022/08/15 04:52:56;;;;;;;;;;;;;;;21.58;84.04;99239.72;5032969;28;1265;-82
2022/08/15 04:55:22;;;;;;;;;;;;;;;21.61;83.24;99240.94;5026374;28;1677;-83
2022/08/15 04:57:48;;;;;;;;;;;;;;;21.46;83.74;99251.94;5031771;28;1496;-84
2022/08/15 05:00:16;;;;;;;;;;;;;;;21.48;83.87;99248.78;5032895;28;1768;-84
2022/08/15 05:02:41;;;;;;;;;;;;;;;21.65;84.18;99247.34;5033323;28;1756;-82
2022/08/15 05:05:07;;;;;;;;;;;;;;;21.70;82.69;99246.97;5029587;28;1906;-83
2022/08/15 05:07:33;;;;;;;;;;;;;;;21.68;82.44;99239.03;5031320;28;1539;-83
2022/08/15 05:09:59;;;;;;;;;;;;;;;21.59;83.86;99237.75;5032500;28;1437;-83
2022/08/15 05:12:24;;;;;;;;;;;;;;;21.64;83.00;99232.63;5048442;28;1554;-84
2022/08/15 05:14:50;;;;;;;;;;;;;;;21.63;82.83;99228.22;5031533;28;1543;-83
2022/08/15 05:17:15;;;;;;;;;;;;;;;21.53;83.73;99231.72;5031565;28;1361;-82
2022/08/15 05:19:40;;;;;;;;;;;;;;;21.51;84.77;99237.69;5032718;28;1464;-83
2022/08/15 05:22:05;;;;;;;;;;;;;;;21.54;84.62;99236.09;5032806;28;1329;-82
2022/08/15 05:24:30;;;;;;;;;;;;;;;21.59;84.52;99227.41;5029485;28;1906;-83
2022/08/15 05:26:55;;;;;;;;;;;;;;;21.65;84.76;99233.41;5027094;28;1842;-83
2022/08/15 05:29:21;;;;;;;;;;;;;;;21.65;85.23;99225.06;5033270;28;1885;-82
2022/08/15 05:31:46;;;;;;;;;;;;;;;21.72;84.64;99230.69;5016826;28;1761;-83
2022/08/15 05:34:11;;;;;;;;;;;;;;;21.72;83.98;99228.69;5024354;28;1507;-83
2022/08/15 05:36:37;;;;;;;;;;;;;;;21.82;83.01;99230.78;5036088;28;1394;-83
2022/08/15 05:39:13;;;;;;;;;;;;;;;21.89;83.54;99224.44;5036286;28;1581;-83
2022/08/15 05:41:44;;;;;;;;;;;;;;;21.76;83.30;99231.53;5035370;28;1346;-83
2022/08/15 05:44:19;;;;;;;;;;;;;;;21.92;82.61;99226.47;5034625;28;1965;-83
2022/08/15 05:46:50;;;;;;;;;;;;;;;22.02;82.66;99222.19;5024061;28;1479;-83
2022/08/15 05:49:23;;;;;;;;;;;;;;;21.97;83.04;99226.13;5032364;28;1751;-83
2022/08/15 05:51:51;;;;;;;;;;;;;;;21.90;84.30;99226.03;5033996;28;1532;-83
2022/08/15 05:54:36;;;;;;;;;;;;;;;21.88;83.27;99226.44;5033216;28;1461;-83
2022/08/15 05:57:01;;;;;;;;;;;;;;;21.75;83.12;99225.16;5035747;28;1767;-83
2022/08/15 05:59:39;;;;;;;;;;;;;;;21.85;82.65;99232.00;5032058;28;1713;-83
2022/08/15 06:02:09;;;;;;;;;;;;;;;21.90;82.65;99226.84;5034905;28;1376;-83
2022/08/15 06:04:34;;;;;;;;;;;;;;;22.02;81.69;99238.91;5039183;28;1886;-84
2022/08/15 06:07:01;;;;;;;;;;;;;;;22.08;81.17;99232.56;5041901;28;1424;-84
2022/08/15 06:09:35;;;;;;;;;;;;;;;22.11;81.56;99236.59;5033273;28;1490;-84
2022/08/15 06:12:03;;;;;;;;;;;;;;;22.05;83.47;99238.91;5040089;28;1850;-84
2022/08/15 06:14:31;;;;;;;;;;;;;;;22.07;82.73;99235.75;5039759;28;1482;-84
2022/08/15 06:17:01;;;;;;;;;;;;;;;22.02;83.22;99236.94;5022500;28;1331;-83
2022/08/15 06:19:31;;;;;;;;;;;;;;;21.98;83.63;99238.88;5023752;28;1596;-84
2022/08/15 06:22:02;;;;;;;;;;;;;;;22.12;81.75;99236.16;5037186;28;1620;-82
2022/08/15 06:24:36;;;;;;;;;;;;;;;22.26;81.42;99235.47;5033413;28;1967;-84
2022/08/15 06:27:07;;;;;;;;;;;;;;;22.29;82.09;99237.47;5036112;28;1679;-83
2022/08/15 06:29:49;;;;;;;;;;;;;;;22.33;81.47;99232.72;5038568;28;1688;-83
2022/08/15 06:32:30;;;;;;;;;;;;;;;22.38;81.32;99239.91;5033129;28;1602;-83
2022/08/15 06:35:03;;;;;;;;;;;;;;;22.41;82.30;99233.56;5036478;28;1517;-84
2022/08/15 06:37:42;;;;;;;;;;;;;;;22.38;81.97;99231.53;5036712;28;1446;-83
2022/08/15 06:40:13;;;;;;;;;;;;;;;22.38;82.27;99223.97;5028955;28;1126;-85
2022/08/15 06:42:43;;;;;;;;;;;;;;;22.41;82.47;99233.56;5030877;28;1472;-82
2022/08/15 06:45:16;;;;;;;;;;;;;;;22.44;82.86;99235.56;5033093;28;1977;-85
2022/08/15 06:47:42;;;;;;;;;;;;;;;22.44;82.60;99235.56;5031159;28;1838;-84
2022/08/15 06:50:13;;;;;;;;;;;;;;;22.48;82.67;99239.16;5036199;28;1281;-84
2022/08/15 06:52:39;;;;;;;;;;;;;;;22.52;81.61;99243.59;5039877;28;1311;-84
2022/08/15 06:55:05;;;;;;;;;;;;;;;22.57;81.07;99239.59;5036809;28;1542;-84
2022/08/15 06:57:49;;;;;;;;;;;;;;;22.55;81.89;99230.81;5027249;28;1443;-84
2022/08/15 07:00:18;;;;;;;;;;;;;;;22.59;81.95;99234.44;5033730;28;1394;-84
2022/08/15 07:03:02;;;;;;;;;;;;;;;22.57;81.92;99236.81;5033190;28;1374;-84
2022/08/15 07:05:34;;;;;;;;;;;;;;;22.67;81.38;99233.28;5032590;28;1906;-84
2022/08/15 07:08:04;;;;;;;;;;;;;;;22.73;79.90;99223.34;5035243;28;1180;-84
2022/08/15 07:10:34;;;;;;;;;;;;;;;22.83;81.60;99227.41;5036013;28;1151;-84
2022/08/15 07:13:20;;;;;;;;;;;;;;;22.82;76.99;99225.78;5034718;28;1103;-83
2022/08/15 07:15:49;;;;;;;;;;;;;;;22.92;78.39;99230.63;5033974;28;1700;-84
2022/08/15 07:18:19;;;;;;;;;;;;;;;23.00;81.20;99235.81;5034768;28;1074;-83
2022/08/15 07:20:45;;;;;;;;;;;;;;;23.06;81.12;99229.84;5033686;28;1612;-84
2022/08/15 07:23:14;;;;;;;;;;;;;;;23.12;76.76;99226.28;5024235;28;1492;-84
2022/08/15 07:25:44;;;;;;;;;;;;;;;23.14;75.97;99226.66;5013508;28;1957;-83
2022/08/15 07:28:09;;;;;;;;;;;;;;;23.13;77.50;99230.69;5030457;28;1516;-84
2022/08/15 07:30:44;;;;;;;;;;;;;;;23.12;77.25;99233.88;5014789;28;848;-84
2022/08/15 07:33:26;;;;;;;;;;;;;;;23.16;78.11;99229.06;5031135;28;1331;-83
2022/08/15 07:35:57;;;;;;;;;;;;;;;23.19;77.08;99236.66;5034402;28;1265;-84
2022/08/15 07:38:28;;;;;;;;;;;;;;;23.19;78.71;99240.25;5032993;28;1446;-84
2022/08/15 07:41:10;;;;;;;;;;;;;;;23.12;79.70;99237.47;5029798;28;1428;-84
2022/08/15 07:43:35;;;;;;;;;;;;;;;23.09;80.77;99237.44;5031299;28;1677;-84
2022/08/15 07:46:07;;;;;;;;;;;;;;;23.09;79.77;99237.44;5038092;28;1925;-83
2022/08/15 07:48:33;;;;;;;;;;;;;;;23.05;80.30;99239.44;5038180;28;1486;-85
2022/08/15 07:51:15;;;;;;;;;;;;;;;23.06;80.74;99243.81;5038622;28;1495;-84
2022/08/15 07:53:52;;;;;;;;;;;;;;;23.01;81.64;99242.22;5019315;28;1496;-84
2022/08/15 07:56:19;;;;;;;;;;;;;;;23.02;81.82;99241.00;5034990;28;1657;-84
2022/08/15 07:58:44;;;;;;;;;;;;;;;22.97;82.19;99249.75;5039371;28;1221;-84
2022/08/15 08:01:27;;;;;;;;;;;;;;;22.90;83.04;99244.97;5034043;28;1769;-85
2022/08/15 08:03:57;;;;;;;;;;;;;;;22.84;82.70;99245.75;5018189;28;928;-84
2022/08/15 08:06:33;;;;;;;;;;;;;;;22.83;83.00;99252.50;5031237;28;1945;-84
2022/08/15 08:09:12;;;;;;;;;;;;;;;22.85;83.06;99250.94;5033067;28;1308;-84
2022/08/15 08:11:43;;;;;;;;;;;;;;;22.81;83.12;99252.09;5035754;28;1482;-84
2022/08/15 08:14:21;;;;;;;;;;;;;;;22.81;82.84;99271.63;5033377;28;1271;-84
2022/08/15 08:16:53;;;;;;;;;;;;;;;22.81;82.54;99272.41;5036685;28;1279;-85
2022/08/15 08:19:24;;;;;;;;;;;;;;;22.75;82.84;99273.19;5034602;28;1458;-84
2022/08/15 08:22:04;;;;;;;;;;;;;;;22.54;82.46;99271.09;5032389;28;1494;-84
2022/08/15 08:24:39;;;;;;;;;;;;;;;22.34;84.69;99281.72;5030196;28;1894;-84
2022/08/15 08:27:14;;;;;;;;;;;;;;;22.24;86.52;99286.03;5032468;28;1432;-84
2022/08/15 08:29:48;;;;;;;;;;;;;;;22.05;86.57;99289.06;5019192;28;1718;-82
2022/08/15 08:32:31;;;;;;;;;;;;;;;21.74;89.04;99295.16;5032394;28;1755;-84
2022/08/15 08:34:59;;;;;;;;;;;;;;;21.68;88.55;99286.38;5023139;28;1531;-84
2022/08/15 08:37:44;;;;;;;;;;;;;;;21.74;87.12;99289.59;5033338;28;1321;-84
2022/08/15 08:43:21;;;;;;;;;;;;;;;21.99;88.13;99295.41;5033810;28;671;-84
2022/08/15 08:45:52;;;;;;;;;;;;;;;22.04;88.21;99295.03;5033264;28;1906;-84
2022/08/15 08:48:17;;;;;;;;;;;;;;;22.02;87.77;99303.00;5031891;28;1925;-84
2022/08/15 08:50:54;;;;;;;;;;;;;;;22.01;88.39;99302.19;5033359;28;845;-84
2022/08/15 08:53:38;;;;;;;;;;;;;;;21.78;87.95;99307.94;5038293;28;1465;-85
2022/08/15 08:56:14;;;;;;;;;;;;;;;21.89;88.50;99316.38;5034935;28;1374;-84
2022/08/15 08:58:45;;;;;;;;;;;;;;;21.90;87.14;99301.28;5032806;28;1747;-84
2022/08/15 09:01:16;;;;;;;;;;;;;;;21.67;89.85;99301.47;5033598;28;794;-84
2022/08/15 09:03:46;;;;;;;;;;;;;;;21.64;91.18;99290.28;5034730;28;1593;-84
2022/08/15 09:06:13;;;;;;;;;;;;;;;21.71;90.75;99299.50;5038908;28;1894;-83
2022/08/15 09:08:51;;;;;;;;;;;;;;;21.81;89.84;99309.16;5041071;28;1390;-84
2022/08/15 09:11:49;;;;;;;;;;;;;;;21.94;89.50;99315.25;5040107;28;1207;-83
2022/08/15 09:14:27;;;;;;;;;;;;;;;21.96;88.47;99313.66;5002546;28;1518;-83
2022/08/15 09:16:54;;;;;;;;;;;;;;;21.77;91.26;99311.13;5039545;28;1378;-82
2022/08/15 09:19:28;;;;;;;;;;;;;;;21.73;90.79;99305.50;5039760;28;2002;-82
2022/08/15 09:21:53;;;;;;;;;;;;;;;21.87;90.75;99327.09;5039285;28;1271;-81
2022/08/15 09:24:20;;;;;;;;;;;;;;;21.93;91.52;99325.59;5036144;28;1906;-84
2022/08/15 09:26:50;;;;;;;;;;;;;;;21.86;90.72;99319.97;5036403;28;1438;-82
2022/08/15 09:29:26;;;;;;;;;;;;;;;22.02;90.59;99328.06;5034695;28;1550;-83
2022/08/15 09:32:04;;;;;;;;;;;;;;;22.10;90.47;99324.16;5039809;28;893;-82
2022/08/15 09:34:29;;;;;;;;;;;;;;;22.17;90.37;99325.00;5040165;28;1329;-82
2022/08/15 09:37:05;;;;;;;;;;;;;;;22.35;89.92;99315.97;5040228;28;1801;-83
2022/08/15 09:39:39;;;;;;;;;;;;;;;22.47;87.89;99321.22;5033794;28;1659;-83
2022/08/15 09:42:15;;;;;;;;;;;;;;;22.38;89.80;99323.53;5039547;28;1424;-83
2022/08/15 09:44:58;;;;;;;;;;;;;;;22.69;90.12;99322.16;5035379;28;1890;-84
2022/08/15 09:47:42;;;;;;;;;;;;;;;22.88;86.76;99316.31;5035528;28;1378;-84
2022/08/15 09:50:40;;;;;;;;;;;;;;;22.85;86.51;99317.09;5031587;28;1746;-83
2022/08/15 09:53:05;;;;;;;;;;;;;;;22.98;87.32;99309.97;4987981;28;1529;-84
2022/08/15 09:55:39;;;;;;;;;;;;;;;23.11;84.44;99307.63;5036157;28;1390;-85
2022/08/15 09:58:12;;;;;;;;;;;;;;;23.16;86.86;99305.25;5040634;28;1399;-85
2022/08/15 10:00:37;;;;;;;;;;;;;;;23.30;87.20;99301.72;5038740;28;1372;-85
2022/08/15 10:03:06;;;;;;;;;;;;;;;23.24;85.23;99292.91;5035722;28;1306;-84
2022/08/15 10:05:45;;;;;;;;;;;;;;;23.23;84.72;99296.09;5035348;28;1945;-85
2022/08/15 10:08:13;;;;;;;;;;;;;;;23.29;85.11;99289.75;5043440;28;1166;-84
2022/08/15 10:10:49;;;;;;;;;;;;;;;23.25;83.29;99296.50;5042635;28;935;-84
2022/08/15 10:13:29;;;;;;;;;;;;;;;23.41;84.82;99299.72;5040640;28;766;-84
2022/08/15 10:15:56;;;;;;;;;;;;;;;23.33;82.81;99306.50;5039319;28;1567;-84
2022/08/15 10:18:27;;;;;;;;;;;;;;;23.38;84.87;99297.75;5040653;28;809;-85
2022/08/15 10:21:01;;;;;;;;;;;;;;;23.36;83.30;99300.13;5041665;28;889;-84
2022/08/15 10:23:39;;;;;;;;;;;;;;;23.34;84.97;99302.50;5044603;28;892;-84
2022/08/15 10:26:24;;;;;;;;;;;;;;;23.33;81.78;99296.13;5042374;28;1963;-84
2022/08/15 10:28:59;;;;;;;;;;;;;;;23.27;81.37;99300.50;5033847;28;1406;-84
2022/08/15 10:31:26;;;;;;;;;;;;;;;23.26;80.61;99295.31;5039074;28;1305;-84
2022/08/15 10:33:53;;;;;;;;;;;;;;;23.34;81.58;99296.94;5040020;28;1296;-84
2022/08/15 10:36:27;;;;;;;;;;;;;;;23.34;80.51;99292.13;5038393;28;1730;-83
2022/08/15 10:39:22;;;;;;;;;;;;;;;23.35;78.80;99290.16;5035375;28;1722;-84
2022/08/15 10:41:52;;;;;;;;;;;;;;;23.33;79.08;99293.34;5037629;28;1515;-83
2022/08/15 10:44:42;;;;;;;;;;;;;;;23.15;76.27;99294.47;5037330;28;1961;-84
2022/08/15 10:47:07;;;;;;;;;;;;;;;23.17;78.28;99297.69;5040334;28;1412;-84
2022/08/15 10:49:47;;;;;;;;;;;;;;;23.23;81.11;99305.25;5039123;28;1523;-83
2022/08/15 10:52:16;;;;;;;;;;;;;;;23.17;78.05;99314.44;5027516;28;1817;-84
2022/08/15 10:54:48;;;;;;;;;;;;;;;23.19;81.70;99312.03;5041541;28;1439;-86
2022/08/15 10:57:20;;;;;;;;;;;;;;;23.16;80.79;99324.00;5039851;28;1487;-85
2022/08/15 10:59:51;;;;;;;;;;;;;;;22.96;79.66;99337.47;5037503;28;1798;-85
2022/08/15 11:02:31;;;;;;;;;;;;;;;22.84;79.22;99340.59;5045115;28;1421;-84
2022/08/15 11:05:05;;;;;;;;;;;;;;;22.77;77.01;99344.16;5043484;28;1910;-85
2022/08/15 11:07:30;;;;;;;;;;;;;;;22.73;77.35;99351.66;5040418;28;1415;-85
2022/08/15 11:09:58;;;;;;;;;;;;;;;22.75;78.07;99337.38;5037614;28;1415;-85
2022/08/15 11:12:24;;;;;;;;;;;;;;;22.75;79.05;99337.38;5042998;28;1673;-84
2022/08/15 11:14:51;;;;;;;;;;;;;;;22.74;78.17;99341.31;5039751;28;1706;-84
2022/08/15 11:17:18;;;;;;;;;;;;;;;22.66;77.48;99351.63;5033395;28;1313;-85
2022/08/15 11:19:44;;;;;;;;;;;;;;;22.67;79.89;99350.44;5039443;28;1212;-85
2022/08/15 11:22:17;;;;;;;;;;;;;;;22.60;79.92;99354.00;5034960;28;1363;-85
2022/08/15 11:24:43;;;;;;;;;;;;;;;22.56;77.96;99358.75;5034507;28;1898;-85
2022/08/15 11:27:19;;;;;;;;;;;;;;;22.51;79.41;99355.53;5033684;28;1296;-84
2022/08/15 11:29:46;;;;;;;;;;;;;;;22.52;79.99;99354.34;5018441;28;873;-84
2022/08/15 11:32:15;;;;;;;;;;;;;;;22.48;81.37;99362.66;5017926;28;1367;-85
2022/08/15 11:34:42;;;;;;;;;;;;;;;22.49;81.59;99363.47;5031614;28;1433;-84
2022/08/15 11:37:15;;;;;;;;;;;;;;;22.48;80.65;99368.25;5032033;28;1503;-85
2022/08/15 11:39:46;;;;;;;;;;;;;;;22.45;81.31;99371.03;5015649;28;865;-84
2022/08/15 11:42:17;;;;;;;;;;;;;;;22.47;83.09;99371.41;5034315;28;1634;-84
2022/08/15 11:44:52;;;;;;;;;;;;;;;22.33;84.64;99371.31;5033678;28;1926;-85
2022/08/15 11:47:17;;;;;;;;;;;;;;;22.31;83.77;99365.31;5033711;28;1366;-85
2022/08/15 11:49:46;;;;;;;;;;;;;;;22.25;86.06;99365.69;5036432;28;1488;-83
2022/08/15 11:52:11;;;;;;;;;;;;;;;22.29;85.53;99359.34;5033729;28;1414;-83
2022/08/15 11:54:36;;;;;;;;;;;;;;;22.18;85.72;99353.69;5037538;28;1535;-84
2022/08/15 11:57:03;;;;;;;;;;;;;;;22.09;87.36;99345.66;5035041;28;1571;-84
2022/08/15 11:59:33;;;;;;;;;;;;;;;21.80;86.68;99329.84;5034207;28;1438;-84
2022/08/15 12:02:17;;;;;;;;;;;;;;;21.77;86.01;99316.69;5035646;28;1450;-85
2022/08/15 12:04:43;;;;;;;;;;;;;;;21.89;86.33;99333.09;5027585;28;2081;-83
2022/08/15 12:07:12;;;;;;;;;;;;;;;21.73;86.27;99313.06;5028815;28;1451;-84
2022/08/15 12:09:37;;;;;;;;;;;;;;;21.94;86.50;99329.19;5035760;28;1360;-84
2022/08/15 12:12:03;;;;;;;;;;;;;;;21.97;86.15;99309.72;5036271;28;1408;-84
2022/08/15 12:14:29;;;;;;;;;;;;;;;22.05;86.01;99305.78;5035499;28;1164;-83
2022/08/15 12:16:59;;;;;;;;;;;;;;;22.00;85.36;99308.94;5038012;28;1190;-85
2022/08/15 12:19:29;;;;;;;;;;;;;;;22.04;85.88;99304.19;5036340;28;1403;-85
2022/08/15 12:21:55;;;;;;;;;;;;;;;22.38;89.46;99309.59;5034342;28;1337;-84
2022/08/15 12:24:24;;;;;;;;;;;;;;;22.84;88.37;99304.31;5034301;28;1977;-85
2022/08/15 12:26:52;;;;;;;;;;;;;;;23.12;87.55;99324.00;5038232;28;1428;-84
2022/08/15 12:29:20;;;;;;;;;;;;;;;23.28;87.91;99320.84;5035225;28;1444;-85
2022/08/15 12:31:46;;;;;;;;;;;;;;;23.32;83.15;99316.06;5033325;28;1508;-84
2022/08/15 12:34:24;;;;;;;;;;;;;;;23.22;80.50;99322.44;5030494;28;1296;-85
2022/08/15 12:36:49;;;;;;;;;;;;;;;23.36;80.38;99322.47;5033279;28;1385;-86
2022/08/15 12:39:15;;;;;;;;;;;;;;;23.52;82.72;99322.94;5032323;28;1207;-83
2022/08/15 12:41:42;;;;;;;;;;;;;;;23.62;82.93;99322.16;5013248;28;1256;-84
2022/08/15 12:44:16;;;;;;;;;;;;;;;23.63;83.70;99318.19;5029465;28;1750;-85
2022/08/15 12:46:42;;;;;;;;;;;;;;;23.60;80.04;99318.97;5024443;28;1791;-84
2022/08/15 12:49:07;;;;;;;;;;;;;;;23.45;79.43;99313.72;5032387;28;1626;-85
2022/08/15 12:51:32;;;;;;;;;;;;;;;23.39;82.25;99310.53;5032090;28;1594;-84
2022/08/15 12:53:57;;;;;;;;;;;;;;;23.37;81.49;99313.69;5029667;28;1514;-84
2022/08/15 12:56:23;;;;;;;;;;;;;;;23.46;80.01;99316.13;5051066;28;1290;-84
2022/08/15 12:58:48;;;;;;;;;;;;;;;23.53;81.37;99312.56;5036146;28;1426;-84
2022/08/15 13:01:13;;;;;;;;;;;;;;;23.66;82.71;99314.56;5033536;28;1281;-85
2022/08/15 13:03:40;;;;;;;;;;;;;;;23.58;82.77;99312.97;5033119;28;1293;-84
2022/08/15 13:06:09;;;;;;;;;;;;;;;23.48;83.36;99308.13;5025866;28;1918;-84
2022/08/15 13:08:35;;;;;;;;;;;;;;;23.47;84.04;99306.53;5030447;28;1405;-85
2022/08/15 13:11:00;;;;;;;;;;;;;;;23.54;83.22;99303.00;5034762;28;1721;-85
2022/08/15 13:13:25;;;;;;;;;;;;;;;23.59;82.24;99294.22;5035466;28;1063;-84
2022/08/15 13:15:50;;;;;;;;;;;;;;;23.77;82.77;99300.63;5035196;28;1694;-84